createdAt,value
2022-12-23T00:00:21.479Z,82.23
2022-12-23T00:02:48.212Z,87.63
2022-12-23T00:05:14.696Z,77.80
2022-12-23T00:07:46.449Z,81.75
2022-12-23T00:10:12.974Z,79.55
2022-12-23T00:12:39.348Z,77.47
2022-12-23T00:15:06.338Z,79.05
2022-12-23T00:17:40.479Z,92.07
2022-12-23T00:20:08.215Z,75.35
2022-12-23T00:22:34.821Z,71.55
2022-12-23T00:25:01.199Z,67.80
2022-12-23T00:27:29.660Z,71.35
2022-12-23T00:29:57.972Z,76.47
2022-12-23T00:32:24.325Z,66.65
2022-12-23T00:34:50.687Z,65.03
2022-12-23T00:37:17.159Z,66.97
2022-12-23T00:39:43.605Z,71.53
2022-12-23T00:42:09.972Z,74.85
2022-12-23T00:44:36.268Z,70.43
2022-12-23T00:47:02.677Z,69.97
2022-12-23T00:49:28.972Z,72.07
2022-12-23T00:51:55.286Z,66.05
2022-12-23T00:54:21.683Z,76.45
2022-12-23T00:56:48.084Z,68.63
2022-12-23T00:59:14.569Z,76.85
2022-12-23T01:01:40.977Z,65.37
2022-12-23T01:04:13.332Z,65.45
2022-12-23T01:06:39.739Z,61.72
2022-12-23T01:09:06.094Z,67.75
2022-12-23T01:11:32.531Z,69.47
2022-12-23T01:13:58.957Z,67.37
2022-12-23T01:16:25.636Z,63.42
2022-12-23T01:18:52.011Z,67.07
2022-12-23T01:21:18.484Z,69.50
2022-12-23T01:23:44.814Z,62.53
2022-12-23T01:26:11.607Z,62.53
2022-12-23T01:28:38.295Z,71.30
2022-12-23T01:31:06.032Z,69.22
2022-12-23T01:33:33.280Z,78.57
2022-12-23T01:36:05.019Z,75.65
2022-12-23T01:38:31.440Z,75.27
2022-12-23T01:40:57.938Z,78.63
2022-12-23T01:43:43.708Z,67.32
2022-12-23T01:46:10.193Z,79.93
2022-12-23T01:48:37.586Z,64.20
2022-12-23T01:51:12.879Z,64.93
2022-12-23T01:53:50.288Z,71.53
2022-12-23T01:56:21.790Z,66.18
2022-12-23T01:58:53.420Z,73.55
2022-12-23T02:01:21.054Z,76.53
2022-12-23T02:03:50.431Z,63.63
2022-12-23T02:06:24.961Z,65.60
2022-12-23T02:08:51.269Z,65.75
2022-12-23T02:11:20.559Z,63.53
2022-12-23T02:14:12.595Z,64.75
2022-12-23T02:16:50.851Z,61.70
2022-12-23T02:19:47.762Z,69.00
2022-12-23T02:22:17.042Z,68.65
2022-12-23T02:25:04.681Z,79.03
2022-12-23T02:27:41.067Z,62.65
2022-12-23T02:30:40.437Z,59.27
2022-12-23T02:33:47.311Z,53.10
2022-12-23T02:36:38.408Z,59.15
2022-12-23T02:39:07.403Z,65.28
2022-12-23T02:41:48.878Z,58.55
2022-12-23T02:44:34.295Z,59.23
2022-12-23T02:47:08.398Z,68.88
2022-12-23T02:49:38.589Z,57.97
2022-12-23T02:52:12.619Z,56.28
2022-12-23T02:54:45.558Z,59.35
2022-12-23T02:57:14.847Z,60.67
2022-12-23T02:59:46.683Z,52.75
2022-12-23T03:02:13.303Z,56.83
2022-12-23T03:04:39.808Z,51.50
2022-12-23T03:07:08.089Z,60.85
2022-12-23T03:10:10.388Z,49.27
2022-12-23T03:12:54.983Z,53.90
2022-12-23T03:15:36.483Z,54.00
2022-12-23T03:18:20.908Z,68.13
2022-12-23T03:20:49.931Z,59.75
2022-12-23T03:23:25.287Z,47.47
2022-12-23T03:26:30.334Z,57.53
2022-12-23T03:29:02.307Z,59.45
2022-12-23T03:31:31.459Z,60.42
2022-12-23T03:34:03.580Z,60.55
2022-12-23T03:36:38.114Z,55.77
2022-12-23T03:39:08.730Z,61.58
2022-12-23T03:41:41.417Z,50.35
2022-12-23T03:44:13.397Z,54.67
2022-12-23T03:46:54.374Z,58.25
2022-12-23T03:49:30.519Z,56.53
2022-12-23T03:52:03.226Z,55.22
2022-12-23T03:54:35.687Z,50.15
2022-12-23T03:57:05.467Z,58.92
2022-12-23T03:59:36.139Z,56.90
2022-12-23T04:02:18.426Z,61.57
2022-12-23T04:05:07.130Z,45.90
2022-12-23T04:07:46.045Z,52.67
2022-12-23T04:10:13.658Z,58.65
2022-12-23T04:12:40.441Z,51.35
2022-12-23T04:15:12.536Z,66.20
2022-12-23T04:17:39.693Z,61.33
2022-12-23T04:20:07.021Z,64.28
2022-12-23T04:22:33.384Z,64.90
2022-12-23T04:24:59.715Z,57.35
2022-12-23T04:27:26.005Z,63.30
2022-12-23T04:29:52.336Z,60.80
2022-12-23T04:32:18.619Z,60.92
2022-12-23T04:34:44.958Z,66.43
2022-12-23T04:37:11.290Z,61.45
2022-12-23T04:39:37.626Z,66.03
2022-12-23T04:42:04.074Z,76.15
2022-12-23T04:44:30.387Z,61.58
2022-12-23T04:46:56.827Z,66.50
2022-12-23T04:49:23.316Z,61.92
2022-12-23T04:51:49.676Z,69.03
2022-12-23T04:54:16.152Z,65.10
2022-12-23T04:56:42.602Z,73.88
2022-12-23T04:59:10.293Z,67.07
2022-12-23T05:01:36.924Z,65.40
2022-12-23T05:04:03.363Z,61.80
2022-12-23T05:06:29.824Z,61.00
2022-12-23T05:08:56.252Z,72.03
2022-12-23T05:11:22.942Z,68.50
2022-12-23T05:13:49.371Z,72.15
2022-12-23T05:16:15.918Z,73.40
2022-12-23T05:18:42.431Z,79.18
2022-12-23T05:21:08.913Z,63.40
2022-12-23T05:23:35.298Z,73.95
2022-12-23T05:26:01.771Z,73.55
2022-12-23T05:28:28.946Z,67.17
2022-12-23T05:31:03.954Z,76.55
2022-12-23T05:33:32.531Z,63.40
2022-12-23T05:35:59.175Z,64.63
2022-12-23T05:38:26.066Z,68.30
2022-12-23T05:40:52.766Z,63.47
2022-12-23T05:43:19.582Z,64.40
2022-12-23T05:45:46.800Z,69.75
2022-12-23T05:48:13.209Z,71.88
2022-12-23T05:50:40.285Z,58.83
2022-12-23T05:53:07.756Z,55.73
2022-12-23T05:55:35.136Z,58.75
2022-12-23T05:58:01.481Z,63.90
2022-12-23T06:00:28.254Z,64.18
2022-12-23T06:02:54.956Z,59.97
2022-12-23T06:05:22.558Z,49.20
2022-12-23T06:07:49.114Z,45.85
2022-12-23T06:10:15.805Z,48.00
2022-12-23T06:12:42.224Z,45.08
2022-12-23T06:15:09.218Z,46.05
2022-12-23T06:17:35.598Z,48.90
2022-12-23T06:20:02.191Z,44.60
2022-12-23T06:22:28.655Z,44.95
2022-12-23T06:24:55.051Z,42.53
2022-12-23T06:27:21.482Z,36.60
2022-12-23T06:29:48.101Z,46.90
2022-12-23T06:32:14.529Z,42.20
2022-12-23T06:34:40.984Z,43.08
2022-12-23T06:37:07.312Z,40.95
2022-12-23T06:39:33.726Z,48.67
2022-12-23T06:41:59.996Z,42.50
2022-12-23T06:44:26.372Z,43.47
2022-12-23T06:46:52.729Z,43.25
2022-12-23T06:49:19.125Z,45.10
2022-12-23T06:51:45.442Z,43.53
2022-12-23T06:54:11.858Z,43.13
2022-12-23T06:56:38.471Z,51.83
2022-12-23T06:59:04.836Z,56.63
2022-12-23T07:01:31.311Z,49.85
2022-12-23T07:03:57.689Z,51.60
2022-12-23T07:06:24.107Z,51.30
2022-12-23T07:08:50.833Z,50.90
2022-12-23T07:11:19.225Z,55.53
2022-12-23T07:13:46.428Z,61.95
2022-12-23T07:16:12.923Z,63.78
2022-12-23T07:18:39.298Z,63.07
2022-12-23T07:21:07.909Z,59.63
2022-12-23T07:23:39.879Z,71.15
2022-12-23T07:26:06.255Z,64.97
2022-12-23T07:28:32.579Z,63.03
2022-12-23T07:30:58.946Z,68.00
2022-12-23T07:33:25.250Z,79.80
2022-12-23T07:35:51.563Z,79.07
2022-12-23T07:38:17.937Z,85.40
2022-12-23T07:40:48.612Z,78.70
2022-12-23T07:43:15.036Z,83.87
2022-12-23T07:45:41.465Z,75.78
2022-12-23T07:48:11.252Z,71.90
2022-12-23T07:50:37.519Z,72.88
2022-12-23T07:53:03.804Z,71.97
2022-12-23T07:55:30.129Z,70.47
2022-12-23T07:57:56.475Z,72.40
2022-12-23T08:00:22.873Z,65.47
2022-12-23T08:02:49.275Z,75.45
2022-12-23T08:05:16.271Z,68.50
2022-12-23T08:07:42.822Z,63.70
2022-12-23T08:10:09.573Z,67.63
2022-12-23T08:12:36.259Z,60.67
2022-12-23T08:15:02.715Z,58.63
2022-12-23T08:17:30.459Z,58.50
2022-12-23T08:19:57.156Z,68.70
2022-12-23T08:22:24.402Z,65.07
2022-12-23T08:24:51.052Z,63.35
2022-12-23T08:27:17.331Z,69.13
2022-12-23T08:29:43.670Z,55.42
2022-12-23T08:32:10.148Z,60.60
2022-12-23T08:34:36.665Z,61.03
2022-12-23T08:37:03.032Z,55.75
2022-12-23T08:39:29.523Z,57.42
2022-12-23T08:41:55.904Z,53.92
2022-12-23T08:44:22.535Z,60.80
2022-12-23T08:46:49.026Z,50.50
2022-12-23T08:49:15.442Z,64.10
2022-12-23T08:51:41.903Z,58.58
2022-12-23T08:54:08.376Z,59.60
2022-12-23T08:56:38.985Z,72.63
2022-12-23T08:59:05.354Z,58.83
2022-12-23T09:01:33.814Z,61.67
2022-12-23T09:04:05.024Z,68.53
2022-12-23T09:06:42.073Z,69.15
2022-12-23T09:09:11.216Z,69.17
2022-12-23T09:11:38.317Z,61.75
2022-12-23T09:14:05.626Z,67.80
2022-12-23T09:16:32.332Z,57.67
2022-12-23T09:18:58.944Z,58.35
2022-12-23T09:21:25.588Z,60.40
2022-12-23T09:23:52.369Z,63.40
2022-12-23T09:26:27.372Z,69.70
2022-12-23T09:28:54.734Z,63.80
2022-12-23T09:31:22.652Z,67.88
2022-12-23T09:33:51.404Z,78.67
2022-12-23T09:36:18.289Z,91.50
2022-12-23T09:38:44.606Z,84.60
2022-12-23T09:41:44.288Z,84.30
2022-12-23T09:44:37.109Z,91.53
2022-12-23T09:47:07.750Z,95.63
2022-12-23T09:49:34.597Z,97.55
2022-12-23T09:52:05.724Z,102.20
2022-12-23T09:54:43.891Z,102.57
2022-12-23T09:57:20.942Z,102.68
2022-12-23T10:00:10.488Z,94.83
2022-12-23T10:02:54.443Z,85.13
2022-12-23T10:05:44.963Z,97.45
2022-12-23T10:08:24.882Z,86.35
2022-12-23T10:10:56.603Z,93.38
2022-12-23T10:13:41.905Z,72.53
2022-12-23T10:16:14.847Z,76.22
2022-12-23T10:18:52.055Z,71.03
2022-12-23T10:21:28.425Z,64.15
2022-12-23T10:23:55.330Z,63.47
2022-12-23T10:26:23.449Z,55.47
2022-12-23T10:28:58.845Z,64.95
2022-12-23T10:31:44.288Z,65.53
2022-12-23T10:34:20.937Z,59.60
2022-12-23T10:37:10.333Z,57.35
2022-12-23T10:40:03.862Z,47.83
2022-12-23T10:42:43.785Z,56.03
2022-12-23T10:45:31.463Z,58.72
2022-12-23T10:48:15.021Z,56.47
2022-12-23T10:50:51.094Z,50.00
2022-12-23T10:53:34.034Z,49.17
2022-12-23T10:56:02.564Z,48.78
2022-12-23T10:58:30.283Z,56.00
2022-12-23T11:01:06.862Z,53.50
2022-12-23T11:03:42.365Z,53.65
2022-12-23T11:06:10.984Z,55.93
2022-12-23T11:08:38.852Z,55.63
2022-12-23T11:11:06.866Z,69.35
2022-12-23T11:13:37.483Z,64.78
2022-12-23T11:16:21.032Z,67.53
2022-12-23T11:19:02.899Z,64.73
2022-12-23T11:21:31.186Z,70.45
2022-12-23T11:24:17.924Z,77.20
2022-12-23T11:26:47.797Z,78.35
2022-12-23T11:29:27.708Z,76.60
2022-12-23T11:31:55.371Z,76.33
2022-12-23T11:34:24.445Z,76.43
2022-12-23T11:37:01.785Z,64.65
2022-12-23T11:39:36.710Z,67.63
2022-12-23T11:42:15.792Z,59.58
2022-12-23T11:44:51.567Z,69.37
2022-12-23T11:47:25.443Z,52.08
2022-12-23T11:50:03.841Z,59.33
2022-12-23T11:52:32.227Z,56.90
2022-12-23T11:55:01.462Z,54.28
2022-12-23T11:57:48.170Z,52.73
2022-12-23T12:00:21.769Z,59.72
2022-12-23T12:02:55.169Z,55.63
2022-12-23T12:05:46.453Z,56.08
2022-12-23T12:08:21.235Z,65.00
2022-12-23T12:10:52.340Z,59.70
2022-12-23T12:13:28.276Z,71.93
2022-12-23T12:16:16.148Z,70.35
2022-12-23T12:18:47.097Z,71.90
2022-12-23T12:21:33.000Z,79.15
2022-12-23T12:24:24.396Z,69.10
2022-12-23T12:27:00.444Z,77.63
2022-12-23T12:29:33.685Z,69.63
2022-12-23T12:32:01.905Z,66.28
2022-12-23T12:34:43.742Z,79.38
2022-12-23T12:37:39.008Z,76.87
2022-12-23T12:40:24.932Z,73.13
2022-12-23T12:42:59.007Z,78.13
2022-12-23T12:45:37.268Z,76.28
2022-12-23T12:48:28.031Z,79.85
2022-12-23T12:51:01.757Z,76.77
2022-12-23T12:53:30.217Z,82.38
2022-12-23T12:56:06.063Z,81.40
2022-12-23T12:58:32.412Z,80.07
2022-12-23T13:01:17.032Z,73.25
2022-12-23T13:03:46.380Z,75.90
2022-12-23T13:06:37.637Z,79.53
2022-12-23T13:09:22.356Z,79.72
2022-12-23T13:12:00.809Z,78.78
2022-12-23T13:14:50.666Z,77.22
2022-12-23T13:17:58.886Z,73.00
2022-12-23T13:20:48.335Z,70.95
2022-12-23T13:24:03.924Z,74.18
2022-12-23T13:26:54.829Z,66.97
2022-12-23T13:29:43.075Z,70.78
2022-12-23T13:32:27.828Z,67.97
2022-12-23T13:35:17.411Z,63.10
2022-12-23T13:37:58.445Z,65.18
2022-12-23T13:40:43.155Z,73.03
2022-12-23T13:43:44.228Z,72.03
2022-12-23T13:46:38.915Z,71.90
2022-12-23T13:49:41.129Z,68.20
2022-12-23T13:52:48.365Z,67.95
2022-12-23T13:55:32.751Z,64.90
2022-12-23T13:58:13.254Z,64.22
2022-12-23T14:00:39.701Z,64.23
2022-12-23T14:03:18.921Z,51.90
2022-12-23T14:05:50.345Z,62.00
2022-12-23T14:08:24.493Z,62.63
2022-12-23T14:11:10.575Z,53.10
2022-12-23T14:13:44.798Z,50.43
2022-12-23T14:16:26.737Z,52.92
2022-12-23T14:18:53.053Z,55.28
2022-12-23T14:21:40.496Z,48.47
2022-12-23T14:24:34.741Z,49.70
2022-12-23T14:27:54.924Z,44.37
2022-12-23T14:30:38.502Z,47.85
2022-12-23T14:33:21.518Z,53.15
2022-12-23T14:35:47.866Z,59.58
2022-12-23T14:38:14.523Z,60.22
2022-12-23T14:40:59.016Z,62.47
2022-12-23T14:43:27.118Z,57.28
2022-12-23T14:46:17.381Z,67.13
2022-12-23T14:48:43.660Z,71.93
2022-12-23T14:51:10.902Z,65.18
2022-12-23T14:53:59.736Z,64.60
2022-12-23T14:56:38.188Z,58.47
2022-12-23T14:59:10.424Z,62.67
2022-12-23T15:01:39.050Z,57.65
2022-12-23T15:04:25.790Z,60.28
2022-12-23T15:06:55.367Z,52.03
2022-12-23T15:09:34.366Z,62.53
2022-12-23T15:12:14.037Z,65.28
2022-12-23T15:14:48.446Z,59.55
2022-12-23T15:17:26.262Z,57.28
2022-12-23T15:19:53.491Z,53.83
2022-12-23T15:22:25.322Z,53.45
2022-12-23T15:24:56.770Z,56.22
2022-12-23T15:27:28.510Z,55.70
2022-12-23T15:29:56.495Z,56.20
2022-12-23T15:32:24.840Z,51.67
2022-12-23T15:34:52.719Z,49.60
2022-12-23T15:37:29.352Z,56.17
2022-12-23T15:40:06.185Z,63.75
2022-12-23T15:42:36.271Z,48.47
2022-12-23T15:45:22.653Z,61.60
2022-12-23T15:47:50.371Z,58.60
2022-12-23T15:50:18.686Z,61.05
2022-12-23T15:52:47.441Z,59.67
2022-12-23T15:55:21.086Z,68.85
2022-12-23T15:57:50.840Z,54.90
2022-12-23T16:00:24.803Z,67.53
2022-12-23T16:03:02.498Z,54.75
2022-12-23T16:05:38.129Z,63.72
2022-12-23T16:08:13.406Z,67.00
2022-12-23T16:10:40.758Z,58.80
2022-12-23T16:13:16.844Z,53.92
2022-12-23T16:15:43.679Z,55.75
2022-12-23T16:18:19.452Z,55.67
2022-12-23T16:20:55.546Z,65.13
2022-12-23T16:23:23.887Z,64.23
2022-12-23T16:25:53.189Z,66.30
2022-12-23T16:28:22.621Z,67.72
2022-12-23T16:30:52.883Z,68.28
2022-12-23T16:33:35.656Z,61.10
2022-12-23T16:36:26.844Z,65.37
2022-12-23T16:38:59.070Z,55.30
2022-12-23T16:41:25.479Z,61.13
2022-12-23T16:43:53.049Z,64.25
2022-12-23T16:46:22.044Z,47.78
2022-12-23T16:48:59.903Z,56.90
2022-12-23T16:51:28.084Z,58.35
2022-12-23T16:53:56.222Z,55.40
2022-12-23T16:56:33.455Z,52.92
2022-12-23T16:58:59.766Z,58.72
2022-12-23T17:01:29.761Z,58.70
2022-12-23T17:03:56.256Z,54.40
2022-12-23T17:06:23.416Z,54.50
2022-12-23T17:08:50.395Z,53.63
2022-12-23T17:11:26.098Z,50.03
2022-12-23T17:13:55.416Z,52.03
2022-12-23T17:16:26.150Z,52.55
2022-12-23T17:18:53.091Z,52.78
2022-12-23T17:21:26.190Z,52.42
2022-12-23T17:23:54.247Z,50.95
2022-12-23T17:26:20.614Z,48.97
2022-12-23T17:28:47.160Z,46.20
2022-12-23T17:31:16.207Z,44.55
2022-12-23T17:33:44.485Z,40.75
2022-12-23T17:36:11.895Z,45.90
2022-12-23T17:38:38.387Z,43.57
2022-12-23T17:41:04.966Z,48.10
2022-12-23T17:43:31.414Z,45.70
2022-12-23T17:45:58.266Z,38.20
2022-12-23T17:48:31.137Z,46.58
2022-12-23T17:50:58.386Z,52.37
2022-12-23T17:53:24.677Z,43.55
2022-12-23T17:55:51.149Z,49.70
2022-12-23T17:58:17.447Z,53.08
2022-12-23T18:00:43.802Z,54.83
2022-12-23T18:03:21.912Z,56.70
2022-12-23T18:05:48.262Z,51.85
2022-12-23T18:08:14.657Z,53.85
2022-12-23T18:10:41.055Z,51.80
2022-12-23T18:13:14.053Z,52.35
2022-12-23T18:15:42.995Z,48.87
2022-12-23T18:18:17.813Z,44.40
2022-12-23T18:20:51.033Z,39.78
2022-12-23T18:23:26.660Z,40.33
2022-12-23T18:25:54.591Z,47.35
2022-12-23T18:28:21.261Z,37.23
2022-12-23T18:30:47.779Z,35.85
2022-12-23T18:33:14.339Z,32.60
2022-12-23T18:35:46.668Z,32.90
2022-12-23T18:38:13.149Z,30.60
2022-12-23T18:40:40.488Z,21.77
2022-12-23T18:43:07.114Z,23.40
2022-12-23T18:45:37.792Z,24.40
2022-12-23T18:48:06.128Z,18.63
2022-12-23T18:50:34.195Z,21.42
2022-12-23T18:53:01.413Z,18.67
2022-12-23T18:55:28.797Z,19.15
2022-12-23T18:57:55.149Z,23.77
2022-12-23T19:00:24.054Z,19.75
2022-12-23T19:02:52.467Z,20.13
2022-12-23T19:05:29.904Z,33.10
2022-12-23T19:07:57.985Z,32.08
2022-12-23T19:10:30.263Z,41.40
2022-12-23T19:12:56.607Z,48.53
2022-12-23T19:15:23.048Z,43.25
2022-12-23T19:17:49.824Z,41.87
2022-12-23T19:20:17.729Z,57.45
2022-12-23T19:22:44.887Z,54.85
2022-12-23T19:25:13.789Z,51.08
2022-12-23T19:27:41.675Z,58.10
2022-12-23T19:30:13.255Z,57.07
2022-12-23T19:32:40.335Z,78.78
2022-12-23T19:35:07.333Z,64.43
2022-12-23T19:37:33.716Z,61.85
2022-12-23T19:40:00.277Z,68.45
2022-12-23T19:42:26.832Z,71.90
2022-12-23T19:44:53.101Z,70.72
2022-12-23T19:47:19.420Z,75.95
2022-12-23T19:49:45.725Z,80.00
2022-12-23T19:52:12.015Z,55.58
2022-12-23T19:54:38.363Z,68.57
2022-12-23T19:57:04.701Z,84.93
2022-12-23T19:59:31.028Z,89.72
2022-12-23T20:01:57.431Z,78.75
2022-12-23T20:04:23.877Z,76.00
2022-12-23T20:06:50.778Z,79.67
2022-12-23T20:09:17.929Z,74.57
2022-12-23T20:11:46.544Z,86.75
2022-12-23T20:14:15.901Z,80.10
2022-12-23T20:16:42.307Z,69.30
2022-12-23T20:19:08.976Z,72.33
2022-12-23T20:21:35.884Z,55.95
2022-12-23T20:24:02.241Z,68.88
2022-12-23T20:26:28.932Z,73.13
2022-12-23T20:28:56.079Z,58.97
2022-12-23T20:31:31.133Z,55.57
2022-12-23T20:33:58.496Z,64.93
2022-12-23T20:36:27.675Z,57.03
2022-12-23T20:38:54.161Z,63.85
2022-12-23T20:41:23.480Z,45.67
2022-12-23T20:44:23.523Z,52.20
2022-12-23T20:46:36.544Z,46.88
2022-12-23T20:49:02.968Z,42.80
2022-12-23T20:51:29.281Z,47.70
2022-12-23T20:53:57.268Z,61.33
2022-12-23T20:56:23.663Z,47.13
2022-12-23T20:58:49.996Z,39.95
2022-12-23T21:01:16.814Z,43.00
2022-12-23T21:03:43.266Z,39.28
2022-12-23T21:06:09.988Z,42.30
2022-12-23T21:08:37.235Z,34.60
2022-12-23T21:11:04.852Z,43.33
2022-12-23T21:13:31.333Z,36.40
2022-12-23T21:16:09.656Z,29.55
2022-12-23T21:18:40.165Z,27.60
2022-12-23T21:21:06.674Z,33.83
2022-12-23T21:23:36.775Z,33.83
2022-12-23T21:26:29.764Z,36.55
2022-12-23T21:28:58.583Z,47.78
2022-12-23T21:31:26.128Z,34.55
2022-12-23T21:33:52.823Z,36.03
2022-12-23T21:36:22.526Z,34.00
2022-12-23T21:38:49.486Z,33.78
2022-12-23T21:41:18.671Z,34.95
2022-12-23T21:43:45.326Z,32.70
2022-12-23T21:46:14.305Z,33.20
2022-12-23T21:48:41.064Z,29.13
2022-12-23T21:51:17.182Z,33.22
2022-12-23T21:53:45.583Z,38.13
2022-12-23T21:56:17.715Z,36.47
2022-12-23T21:58:44.531Z,39.43
2022-12-23T22:01:21.116Z,32.33
2022-12-23T22:03:49.475Z,32.95
2022-12-23T22:06:19.209Z,38.00
2022-12-23T22:08:45.906Z,31.00
2022-12-23T22:11:15.661Z,27.60
2022-12-23T22:13:42.707Z,31.92
2022-12-23T22:16:11.227Z,46.40
2022-12-23T22:18:38.745Z,43.42
2022-12-23T22:21:11.667Z,37.55
2022-12-23T22:23:38.988Z,39.30
2022-12-23T22:26:07.105Z,37.92
2022-12-23T22:28:35.464Z,32.45
2022-12-23T22:31:05.538Z,30.40
2022-12-23T22:33:33.338Z,33.65
2022-12-23T22:35:59.877Z,39.80
2022-12-23T22:38:26.578Z,34.83
2022-12-23T22:40:53.319Z,39.42
2022-12-23T22:43:20.096Z,27.67
2022-12-23T22:45:46.647Z,36.90
2022-12-23T22:48:13.255Z,40.40
2022-12-23T22:50:39.644Z,48.60
2022-12-23T22:53:06.077Z,42.00
2022-12-23T22:55:32.418Z,35.72
2022-12-23T22:57:58.747Z,30.67
2022-12-23T23:00:25.065Z,38.13
2022-12-23T23:02:51.373Z,33.35
2022-12-23T23:05:17.846Z,27.88
2022-12-23T23:07:44.306Z,33.33
2022-12-23T23:10:10.898Z,30.88
2022-12-23T23:12:37.224Z,35.63
2022-12-23T23:15:04.036Z,28.60
2022-12-23T23:17:30.377Z,34.15
2022-12-23T23:19:56.784Z,29.95
2022-12-23T23:22:23.687Z,27.80
2022-12-23T23:24:50.174Z,19.57
2022-12-23T23:27:16.557Z,22.70
2022-12-23T23:29:42.887Z,17.55
2022-12-23T23:32:09.655Z,23.98
2022-12-23T23:34:36.557Z,25.17
2022-12-23T23:37:03.893Z,20.20
2022-12-23T23:39:30.498Z,21.45
2022-12-23T23:41:56.817Z,25.48
2022-12-23T23:44:23.194Z,26.42
2022-12-23T23:46:49.545Z,25.65
2022-12-23T23:49:15.810Z,25.13
2022-12-23T23:51:42.229Z,25.27
2022-12-23T23:54:08.799Z,20.65
2022-12-23T23:56:38.772Z,31.63
2022-12-23T23:59:06.662Z,24.10
